Time,TemperatureF,DewpointF,PressureIn,WindDirection,WindDirectionDegrees,WindSpeedMPH,WindSpeedGustMPH,Humidity,HourlyPrecipIn,Conditions,Clouds,dailyrainin,SoftwareType,DateUTC
2013-06-09 00:02:00,58.0,56.0,29.88,NNE,32,8.0,15.0,93,0.05,,,0.28,,2013-06-09 05:02:00,
2013-06-09 00:12:00,58.0,56.0,29.88,NNE,32,8.0,15.0,93,0.05,,,0.28,,2013-06-09 05:12:00,
2013-06-09 00:22:00,58.0,57.0,29.86,NE,53,9.0,15.0,95,0.08,,,0.31,,2013-06-09 05:22:00,
2013-06-09 00:32:00,59.0,58.0,29.86,ENE,77,9.0,15.0,95,0.06,,,0.31,,2013-06-09 05:32:00,
2013-06-09 00:42:00,59.0,58.0,29.86,ENE,77,9.0,15.0,95,0.06,,,0.31,,2013-06-09 05:42:00,
2013-06-09 00:52:00,59.0,58.0,29.86,ENE,57,6.0,17.0,95,0.05,,,0.31,,2013-06-09 05:52:00,
2013-06-09 01:02:00,59.0,58.0,29.85,East,96,8.0,16.0,96,0.03,,,0.31,,2013-06-09 06:02:00,
2013-06-09 01:12:00,59.0,58.0,29.85,East,96,8.0,16.0,96,0.03,,,0.31,,2013-06-09 06:12:00,
2013-06-09 01:22:00,59.0,58.0,29.85,East,96,8.0,13.0,96,0.01,,,0.32,,2013-06-09 06:22:00,
2013-06-09 01:32:00,59.0,58.0,29.84,East,81,5.0,10.0,96,0.02,,,0.33,,2013-06-09 06:32:00,
2013-06-09 01:42:00,59.0,58.0,29.84,East,81,5.0,10.0,96,0.02,,,0.33,,2013-06-09 06:42:00,
2013-06-09 01:52:00,59.0,58.0,29.83,East,81,6.0,14.0,95,0.02,,,0.33,,2013-06-09 06:52:00,
2013-06-09 02:02:00,59.0,58.0,29.82,East,86,8.0,15.0,95,0.04,,,0.35,,2013-06-09 07:02:00,
2013-06-09 02:12:00,59.0,58.0,29.82,East,86,8.0,15.0,95,0.04,,,0.35,,2013-06-09 07:12:00,
2013-06-09 02:22:00,59.0,57.0,29.81,ENE,71,8.0,16.0,94,0.03,,,0.35,,2013-06-09 07:22:00,
2013-06-09 02:32:00,60.0,58.0,29.80,ENE,65,8.0,16.0,94,0.02,,,0.35,,2013-06-09 07:32:00,
2013-06-09 02:42:00,60.0,58.0,29.80,ENE,65,8.0,16.0,94,0.02,,,0.35,,2013-06-09 07:42:00,
2013-06-09 02:52:00,60.0,58.0,29.79,ENE,61,8.0,18.0,93,0.03,,,0.36,,2013-06-09 07:52:00,
2013-06-09 03:02:00,60.0,58.0,29.79,ENE,71,8.0,17.0,92,0.02,,,0.37,,2013-06-09 08:02:00,
2013-06-09 03:12:00,60.0,58.0,29.79,ENE,71,8.0,17.0,92,0.02,,,0.37,,2013-06-09 08:12:00,
2013-06-09 03:22:00,60.0,58.0,29.79,ENE,78,6.0,11.0,93,0.02,,,0.37,,2013-06-09 08:22:00,
2013-06-09 03:32:00,60.0,58.0,29.78,East,99,7.0,14.0,93,0.03,,,0.38,,2013-06-09 08:32:00,
2013-06-09 03:42:00,60.0,58.0,29.78,East,99,7.0,14.0,93,0.03,,,0.38,,2013-06-09 08:42:00,
2013-06-09 03:53:00,60.0,58.0,29.78,ENE,65,8.0,14.0,93,0.02,,,0.38,,2013-06-09 08:53:00,
2013-06-09 04:02:00,60.0,58.0,29.77,East,94,8.0,18.0,92,0.01,,,0.38,,2013-06-09 09:02:00,
2013-06-09 04:12:00,60.0,58.0,29.77,East,94,8.0,18.0,92,0.01,,,0.38,,2013-06-09 09:12:00,
2013-06-09 04:22:00,59.0,57.0,29.76,East,90,9.0,17.0,94,0.02,,,0.39,,2013-06-09 09:22:00,
2013-06-09 04:33:00,59.0,57.0,29.76,East,96,8.0,21.0,94,0.01,,,0.39,,2013-06-09 09:33:00,
2013-06-09 04:43:00,59.0,57.0,29.76,East,96,8.0,21.0,94,0.01,,,0.39,,2013-06-09 09:43:00,
2013-06-09 04:52:00,59.0,58.0,29.76,NE,36,10.0,17.0,95,0.01,,,0.39,,2013-06-09 09:52:00,
2013-06-09 05:03:00,59.0,58.0,29.75,East,94,9.0,17.0,96,0.03,,,0.41,,2013-06-09 10:03:00,
2013-06-09 05:12:00,59.0,58.0,29.75,East,94,9.0,17.0,96,0.03,,,0.41,,2013-06-09 10:12:00,
2013-06-09 05:23:00,59.0,58.0,29.75,ENE,75,7.0,15.0,96,0.02,,,0.41,,2013-06-09 10:23:00,
2013-06-09 05:32:00,59.0,58.0,29.76,East,95,9.0,17.0,96,0.02,,,0.41,,2013-06-09 10:32:00,
2013-06-09 05:43:00,59.0,58.0,29.76,East,95,9.0,17.0,96,0.02,,,0.41,,2013-06-09 10:43:00,
2013-06-09 05:52:00,59.0,58.0,29.76,ENE,77,6.0,13.0,96,0.04,,,0.43,,2013-06-09 10:52:00,
2013-06-09 06:02:00,59.0,58.0,29.76,ENE,77,9.0,22.0,96,0.03,,,0.44,,2013-06-09 11:02:00,
2013-06-09 06:12:00,59.0,58.0,29.76,ENE,77,9.0,22.0,96,0.03,,,0.44,,2013-06-09 11:12:00,
2013-06-09 06:22:00,59.0,58.0,29.76,ESE,105,8.0,11.0,97,0.03,,,0.44,,2013-06-09 11:22:00,
2013-06-09 06:32:00,59.0,58.0,29.75,ENE,63,9.0,16.0,97,0.03,,,0.44,,2013-06-09 11:32:00,
2013-06-09 06:42:00,59.0,58.0,29.75,ENE,63,9.0,16.0,97,0.03,,,0.44,,2013-06-09 11:42:00,
2013-06-09 06:53:00,59.0,58.0,29.76,East,84,6.0,15.0,98,0.01,,,0.44,,2013-06-09 11:53:00,
2013-06-09 07:02:00,60.0,59.0,29.75,SE,131,7.0,14.0,98,0.00,,,0.44,,2013-06-09 12:02:00,
2013-06-09 07:12:00,60.0,59.0,29.75,SE,131,7.0,14.0,98,0.00,,,0.44,,2013-06-09 12:12:00,
2013-06-09 07:22:00,60.0,59.0,29.76,East,90,5.0,14.0,98,0.00,,,0.44,,2013-06-09 12:22:00,
2013-06-09 07:32:00,60.0,59.0,29.76,ENE,76,5.0,12.0,98,0.00,,,0.44,,2013-06-09 12:32:00,
2013-06-09 07:42:00,60.0,59.0,29.76,ENE,76,5.0,12.0,98,0.00,,,0.44,,2013-06-09 12:42:00,
2013-06-09 07:52:00,60.0,59.0,29.75,East,83,6.0,13.0,98,0.00,,,0.44,,2013-06-09 12:52:00,
2013-06-09 08:02:00,61.0,60.0,29.75,East,93,6.0,14.0,98,0.00,,,0.44,,2013-06-09 13:02:00,
2013-06-09 08:12:00,61.0,60.0,29.75,East,93,6.0,14.0,98,0.00,,,0.44,,2013-06-09 13:12:00,
2013-06-09 08:22:00,61.0,60.0,29.75,ESE,121,6.0,13.0,98,0.00,,,0.44,,2013-06-09 13:22:00,
2013-06-09 08:32:00,62.0,61.0,29.75,ESE,114,4.0,11.0,98,0.00,,,0.44,,2013-06-09 13:32:00,
2013-06-09 08:42:00,62.0,61.0,29.75,ESE,114,4.0,11.0,98,0.00,,,0.44,,2013-06-09 13:42:00,
2013-06-09 08:52:00,62.0,61.0,29.75,ENE,77,5.0,11.0,97,0.00,,,0.44,,2013-06-09 13:52:00,
2013-06-09 09:02:00,62.0,61.0,29.75,East,96,4.0,10.0,97,0.00,,,0.44,,2013-06-09 14:02:00,
2013-06-09 09:12:00,62.0,61.0,29.75,East,96,4.0,10.0,97,0.00,,,0.44,,2013-06-09 14:12:00,
2013-06-09 09:22:00,63.0,62.0,29.75,East,94,6.0,12.0,97,0.00,,,0.44,,2013-06-09 14:22:00,
2013-06-09 09:32:00,63.0,62.0,29.75,ENE,63,3.0,11.0,96,0.00,,,0.44,,2013-06-09 14:32:00,
2013-06-09 09:42:00,63.0,62.0,29.75,ENE,63,3.0,11.0,96,0.00,,,0.44,,2013-06-09 14:42:00,
2013-06-09 09:52:00,63.0,62.0,29.75,East,97,7.0,15.0,95,0.00,,,0.44,,2013-06-09 14:52:00,
2013-06-09 10:02:00,65.0,63.0,29.75,South,171,7.0,16.0,94,0.00,,,0.44,,2013-06-09 15:02:00,
2013-06-09 10:12:00,65.0,63.0,29.75,South,171,7.0,16.0,94,0.00,,,0.44,,2013-06-09 15:12:00,
2013-06-09 10:22:00,65.0,63.0,29.75,East,92,6.0,16.0,93,0.01,,,0.45,,2013-06-09 15:22:00,
2013-06-09 10:33:00,64.0,62.0,29.75,ESE,113,7.0,15.0,93,0.01,,,0.45,,2013-06-09 15:33:00,
2013-06-09 10:43:00,64.0,62.0,29.75,ESE,113,7.0,15.0,93,0.01,,,0.45,,2013-06-09 15:43:00,
2013-06-09 10:53:00,63.0,61.0,29.76,ESE,111,6.0,11.0,94,0.01,,,0.45,,2013-06-09 15:53:00,
2013-06-09 11:03:00,63.0,62.0,29.76,ENE,72,6.0,14.0,95,0.01,,,0.45,,2013-06-09 16:03:00,
2013-06-09 11:13:00,63.0,62.0,29.76,ENE,72,6.0,14.0,95,0.01,,,0.45,,2013-06-09 16:13:00,
2013-06-09 11:23:00,62.0,61.0,29.76,ESE,118,5.0,12.0,97,0.00,,,0.45,,2013-06-09 16:23:00,
2013-06-09 11:33:00,63.0,62.0,29.76,East,96,2.0,8.0,97,0.01,,,0.46,,2013-06-09 16:33:00,
2013-06-09 11:42:00,63.0,62.0,29.76,East,96,2.0,8.0,97,0.01,,,0.46,,2013-06-09 16:42:00,
2013-06-09 11:53:00,63.0,62.0,29.77,SE,127,6.0,11.0,97,0.01,,,0.46,,2013-06-09 16:53:00,
2013-06-09 12:02:00,64.0,63.0,29.76,East,80,7.0,12.0,97,0.02,,,0.47,,2013-06-09 17:02:00,
2013-06-09 12:12:00,64.0,63.0,29.76,East,80,7.0,12.0,97,0.02,,,0.47,,2013-06-09 17:12:00,
2013-06-09 12:22:00,65.0,64.0,29.75,ENE,74,7.0,14.0,97,0.03,,,0.48,,2013-06-09 17:22:00,
2013-06-09 12:32:00,65.0,63.0,29.75,ENE,65,5.0,13.0,94,0.03,,,0.49,,2013-06-09 17:32:00,
2013-06-09 12:42:00,65.0,63.0,29.75,ENE,65,5.0,13.0,94,0.03,,,0.49,,2013-06-09 17:42:00,
2013-06-09 12:52:00,66.0,64.0,29.75,NE,47,6.0,16.0,92,0.03,,,0.47,,2013-06-09 17:52:00,
2013-06-09 13:02:00,67.0,64.0,29.75,East,86,5.0,14.0,90,0.02,,,0.47,,2013-06-09 18:02:00,
2013-06-09 13:12:00,67.0,64.0,29.75,East,86,5.0,14.0,90,0.02,,,0.47,,2013-06-09 18:12:00,
2013-06-09 13:22:00,66.0,63.0,29.75,East,81,8.0,14.0,90,0.02,,,0.48,,2013-06-09 18:22:00,
2013-06-09 13:32:00,67.0,65.0,29.75,South,190,3.0,13.0,94,0.01,,,0.48,,2013-06-09 18:32:00,
2013-06-09 13:42:00,67.0,65.0,29.75,South,190,3.0,13.0,94,0.01,,,0.48,,2013-06-09 18:42:00,
2013-06-09 13:52:00,66.0,62.0,29.75,ESE,115,3.0,13.0,88,0.01,,,0.47,,2013-06-09 18:52:00,
2013-06-09 14:02:00,66.0,63.0,29.75,SE,136,3.0,11.0,90,0.01,,,0.47,,2013-06-09 19:02:00,
2013-06-09 14:12:00,66.0,63.0,29.75,SE,136,3.0,11.0,90,0.01,,,0.47,,2013-06-09 19:12:00,
2013-06-09 14:22:00,69.0,65.0,29.75,ENE,71,1.0,11.0,87,0.00,,,0.47,,2013-06-09 19:22:00,
2013-06-09 14:32:00,69.0,65.0,29.75,SW,221,1.0,6.0,87,0.00,,,0.47,,2013-06-09 19:32:00,
2013-06-09 14:42:00,69.0,65.0,29.75,SW,221,1.0,6.0,87,0.00,,,0.47,,2013-06-09 19:42:00,
2013-06-09 14:52:00,70.0,64.0,29.75,SE,141,4.0,8.0,82,0.00,,,0.47,,2013-06-09 19:52:00,
2013-06-09 15:02:00,71.0,65.0,29.75,SSE,158,3.0,9.0,80,0.00,,,0.47,,2013-06-09 20:02:00,
2013-06-09 15:12:00,71.0,65.0,29.75,SSE,158,3.0,9.0,80,0.00,,,0.47,,2013-06-09 20:12:00,
2013-06-09 15:22:00,72.0,64.0,29.75,South,181,3.0,8.0,76,0.00,,,0.47,,2013-06-09 20:22:00,
2013-06-09 15:32:00,72.0,63.0,29.75,West,271,3.0,12.0,73,0.00,,,0.47,,2013-06-09 20:32:00,
2013-06-09 15:42:00,72.0,63.0,29.75,West,271,3.0,12.0,73,0.00,,,0.47,,2013-06-09 20:42:00,
2013-06-09 15:52:00,73.0,64.0,29.75,East,82,3.0,13.0,73,0.00,,,0.45,,2013-06-09 20:52:00,
2013-06-09 16:02:00,72.0,63.0,29.75,East,95,2.0,10.0,73,0.00,,,0.45,,2013-06-09 21:02:00,
2013-06-09 16:12:00,73.0,63.0,29.75,ESE,111,2.0,8.0,71,0.00,,,0.45,,2013-06-09 21:12:00,
2013-06-09 16:22:00,73.0,63.0,29.75,ESE,111,2.0,8.0,71,0.00,,,0.45,,2013-06-09 21:22:00,
2013-06-09 16:33:00,73.0,62.0,29.75,East,92,5.0,8.0,69,0.00,,,0.45,,2013-06-09 21:33:00,
2013-06-09 16:43:00,73.0,62.0,29.75,East,92,5.0,8.0,69,0.00,,,0.45,,2013-06-09 21:43:00,
2013-06-09 16:53:00,70.0,62.0,29.76,ENE,65,2.0,17.0,77,0.04,,,0.48,,2013-06-09 21:53:00,
2013-06-09 17:02:00,68.0,63.0,29.76,ENE,65,0.0,2.0,85,0.05,,,0.49,,2013-06-09 22:02:00,
2013-06-09 17:13:00,69.0,65.0,29.76,ENE,65,0.0,2.0,87,0.05,,,0.49,,2013-06-09 22:13:00,
2013-06-09 17:23:00,69.0,65.0,29.76,ENE,65,0.0,2.0,87,0.05,,,0.49,,2013-06-09 22:23:00,
2013-06-09 17:33:00,71.0,66.0,29.76,SSE,168,0.0,3.0,84,0.05,,,0.49,,2013-06-09 22:33:00,
2013-06-09 17:42:00,71.0,66.0,29.76,SSE,168,0.0,3.0,84,0.05,,,0.49,,2013-06-09 22:42:00,
2013-06-09 17:52:00,72.0,65.0,29.76,SE,144,2.0,4.0,79,0.01,,,0.49,,2013-06-09 22:52:00,
2013-06-09 18:02:00,72.0,64.0,29.76,ENE,77,7.0,11.0,76,0.00,,,0.49,,2013-06-09 23:02:00,
2013-06-09 18:12:00,71.0,64.0,29.76,NE,51,4.0,10.0,79,0.00,,,0.49,,2013-06-09 23:12:00,
2013-06-09 18:22:00,71.0,64.0,29.76,NE,51,4.0,10.0,79,0.00,,,0.49,,2013-06-09 23:22:00,
2013-06-09 18:32:00,69.0,64.0,29.77,East,96,327.0,327.0,84,0.00,,,0.49,,2013-06-09 23:32:00,
2013-06-09 18:42:00,69.0,64.0,29.77,East,96,327.0,327.0,84,0.00,,,0.49,,2013-06-09 23:42:00,
2013-06-09 18:52:00,68.0,63.0,29.77,NE,39,3.0,7.0,84,0.00,,,0.49,,2013-06-09 23:52:00,
2013-06-09 19:02:00,69.0,65.0,29.78,East,88,4.0,7.0,86,0.00,,,0.49,,2013-06-10 00:02:00,
2013-06-09 19:12:00,69.0,65.0,29.78,East,88,4.0,7.0,86,0.00,,,0.49,,2013-06-10 00:12:00,
2013-06-09 19:22:00,68.0,64.0,29.78,ENE,78,4.0,7.0,86,0.00,,,0.48,,2013-06-10 00:22:00,
2013-06-09 19:32:00,68.0,64.0,29.79,ENE,57,3.0,7.0,86,0.00,,,0.48,,2013-06-10 00:32:00,
2013-06-09 19:42:00,68.0,64.0,29.79,ENE,57,3.0,7.0,86,0.00,,,0.48,,2013-06-10 00:42:00,
2013-06-09 19:52:00,68.0,63.0,29.79,East,81,3.0,8.0,85,0.00,,,0.48,,2013-06-10 00:52:00,
2013-06-09 20:02:00,68.0,63.0,29.80,ENE,78,3.0,8.0,85,0.00,,,0.48,,2013-06-10 01:02:00,
2013-06-09 20:12:00,68.0,63.0,29.80,ENE,78,3.0,8.0,85,0.00,,,0.48,,2013-06-10 01:12:00,
2013-06-09 20:22:00,67.0,63.0,29.80,East,98,2.0,5.0,87,0.00,,,0.46,,2013-06-10 01:22:00,
2013-06-09 20:32:00,67.0,63.0,29.80,East,80,0.0,3.0,88,0.00,,,0.46,,2013-06-10 01:32:00,
2013-06-09 20:42:00,67.0,63.0,29.80,East,80,0.0,3.0,88,0.00,,,0.46,,2013-06-10 01:42:00,
2013-06-09 20:52:00,67.0,64.0,29.81,East,80,0.0,1.0,89,0.00,,,0.46,,2013-06-10 01:52:00,
2013-06-09 21:02:00,66.0,63.0,29.81,East,80,0.0,0.0,90,0.00,,,0.46,,2013-06-10 02:02:00,
2013-06-09 21:12:00,66.0,63.0,29.81,East,80,0.0,0.0,90,0.00,,,0.46,,2013-06-10 02:12:00,
2013-06-09 21:22:00,65.0,62.0,29.82,East,80,0.0,0.0,91,0.00,,,0.43,,2013-06-10 02:22:00,
2013-06-09 21:32:00,64.0,62.0,29.82,East,80,0.0,0.0,93,0.00,,,0.43,,2013-06-10 02:32:00,
2013-06-09 21:42:00,64.0,62.0,29.82,East,80,0.0,0.0,93,0.00,,,0.43,,2013-06-10 02:42:00,
2013-06-09 21:52:00,63.0,61.0,29.83,East,80,0.0,0.0,94,0.00,,,0.43,,2013-06-10 02:52:00,
2013-06-09 22:02:00,63.0,62.0,29.84,East,80,0.0,0.0,96,0.00,,,0.43,,2013-06-10 03:02:00,
2013-06-09 22:12:00,63.0,62.0,29.84,East,80,0.0,0.0,96,0.00,,,0.43,,2013-06-10 03:12:00,
2013-06-09 22:22:00,63.0,62.0,29.84,East,80,0.0,1.0,96,0.00,,,0.40,,2013-06-10 03:22:00,
2013-06-09 22:33:00,63.0,62.0,29.84,East,80,0.0,0.0,96,0.00,,,0.40,,2013-06-10 03:33:00,
2013-06-09 22:43:00,63.0,62.0,29.84,East,80,0.0,0.0,96,0.00,,,0.40,,2013-06-10 03:43:00,
2013-06-09 22:53:00,62.0,61.0,29.85,East,80,0.0,0.0,96,0.00,,,0.40,,2013-06-10 03:53:00,
2013-06-09 23:03:00,62.0,61.0,29.85,East,80,0.0,0.0,97,0.00,,,0.40,,2013-06-10 04:03:00,
2013-06-09 23:12:00,62.0,61.0,29.85,East,80,0.0,0.0,97,0.00,,,0.40,,2013-06-10 04:12:00,
2013-06-09 23:23:00,62.0,61.0,29.84,East,80,0.0,1.0,97,0.00,,,0.36,,2013-06-10 04:23:00,
2013-06-09 23:33:00,61.0,60.0,29.85,East,80,0.0,0.0,97,0.00,,,0.36,,2013-06-10 04:33:00,
2013-06-09 23:42:00,61.0,60.0,29.85,East,80,0.0,0.0,97,0.00,,,0.36,,2013-06-10 04:42:00,
2013-06-09 23:53:00,61.0,60.0,29.85,East,80,0.0,0.0,97,0.00,,,0.36,,2013-06-10 04:53:00,